createdAt,value
2023-01-23T00:01:51.837Z,6.00
2023-01-23T00:04:40.249Z,6.67
2023-01-23T00:07:30.006Z,6.63
2023-01-23T00:10:19.191Z,7.23
2023-01-23T00:13:07.707Z,5.80
2023-01-23T00:15:56.136Z,5.70
2023-01-23T00:18:44.557Z,6.03
2023-01-23T00:21:33.100Z,6.43
2023-01-23T00:24:22.793Z,6.33
2023-01-23T00:27:11.278Z,8.20
2023-01-23T00:29:59.709Z,6.70
2023-01-23T00:32:48.199Z,6.03
2023-01-23T00:35:36.631Z,6.43
2023-01-23T00:38:25.136Z,6.37
2023-01-23T00:41:14.889Z,6.60
2023-01-23T00:44:03.391Z,6.23
2023-01-23T00:46:51.742Z,6.17
2023-01-23T00:49:40.218Z,5.53
2023-01-23T00:52:29.296Z,5.83
2023-01-23T00:55:18.099Z,6.53
2023-01-23T00:58:08.249Z,5.73
2023-01-23T01:00:57.289Z,6.17
2023-01-23T01:03:45.955Z,6.07
2023-01-23T01:06:34.331Z,5.17
2023-01-23T01:09:22.997Z,6.20
2023-01-23T01:12:11.355Z,5.13
2023-01-23T01:15:01.186Z,4.90
2023-01-23T01:17:49.650Z,5.50
2023-01-23T01:20:40.873Z,5.23
2023-01-23T01:23:29.299Z,5.50
2023-01-23T01:26:18.347Z,4.63
2023-01-23T01:29:06.790Z,4.73
2023-01-23T01:31:56.514Z,4.70
2023-01-23T01:34:44.952Z,5.20
2023-01-23T01:37:34.437Z,5.10
2023-01-23T01:40:25.888Z,4.87
2023-01-23T01:43:20.587Z,5.37
2023-01-23T01:46:17.873Z,5.37
2023-01-23T01:49:11.009Z,5.37
2023-01-23T01:52:03.613Z,5.03
2023-01-23T01:54:54.289Z,6.10
2023-01-23T01:57:45.177Z,5.20
2023-01-23T02:00:33.720Z,5.90
2023-01-23T02:03:22.250Z,5.23
2023-01-23T02:06:11.967Z,5.67
2023-01-23T02:09:04.187Z,5.77
2023-01-23T02:11:52.759Z,5.40
2023-01-23T02:14:41.394Z,6.63
2023-01-23T02:17:29.845Z,6.47
2023-01-23T02:20:21.858Z,6.00
2023-01-23T02:23:16.735Z,5.70
2023-01-23T02:26:08.282Z,5.97
2023-01-23T02:28:57.332Z,5.77
2023-01-23T02:31:51.798Z,6.00
2023-01-23T02:34:42.522Z,5.77
2023-01-23T02:37:31.848Z,5.53
2023-01-23T02:40:22.316Z,6.07
2023-01-23T02:43:15.311Z,5.97
2023-01-23T02:46:11.940Z,5.47
2023-01-23T02:49:00.443Z,5.40
2023-01-23T02:51:49.102Z,6.93
2023-01-23T02:54:37.583Z,5.43
2023-01-23T02:57:25.951Z,6.20
2023-01-23T03:00:16.078Z,6.13
2023-01-23T03:03:05.452Z,6.73
2023-01-23T03:05:55.471Z,6.27
2023-01-23T03:08:49.137Z,6.70
2023-01-23T03:11:39.044Z,5.90
2023-01-23T03:14:30.027Z,7.53
2023-01-23T03:17:19.792Z,6.70
2023-01-23T03:20:09.257Z,5.47
2023-01-23T03:22:57.798Z,6.77
2023-01-23T03:25:47.058Z,7.03
2023-01-23T03:28:53.420Z,5.80
2023-01-23T03:32:13.286Z,6.20
2023-01-23T03:35:03.074Z,6.73
2023-01-23T03:37:52.229Z,7.43
2023-01-23T03:40:58.732Z,11.60
2023-01-23T03:43:47.269Z,6.27
2023-01-23T03:46:35.784Z,7.77
2023-01-23T03:49:24.462Z,8.80
2023-01-23T03:52:21.077Z,8.77
2023-01-23T03:55:10.691Z,8.43
2023-01-23T03:57:59.975Z,8.43
2023-01-23T04:00:51.147Z,8.77
2023-01-23T04:03:39.714Z,9.00
2023-01-23T04:06:28.708Z,9.23
2023-01-23T04:09:19.555Z,9.10
2023-01-23T04:12:08.135Z,8.33
2023-01-23T04:15:00.809Z,8.13
2023-01-23T04:17:50.027Z,7.60
2023-01-23T04:20:38.655Z,9.13
2023-01-23T04:23:28.008Z,8.93
2023-01-23T04:26:17.976Z,8.53
2023-01-23T04:29:06.465Z,9.03
2023-01-23T04:31:55.464Z,7.97
2023-01-23T04:34:44.021Z,7.70
2023-01-23T04:37:32.475Z,8.90
2023-01-23T04:40:21.632Z,8.53
2023-01-23T04:43:16.506Z,7.90
2023-01-23T04:46:09.295Z,7.90
2023-01-23T04:49:36.149Z,6.63
2023-01-23T04:52:24.579Z,6.60
2023-01-23T04:55:18.006Z,7.13
2023-01-23T04:58:06.456Z,6.43
2023-01-23T05:00:56.226Z,6.73
2023-01-23T05:03:50.463Z,6.83
2023-01-23T05:06:39.389Z,6.57
2023-01-23T05:09:28.477Z,7.00
2023-01-23T05:12:16.922Z,7.23
2023-01-23T05:15:06.383Z,7.37
2023-01-23T05:17:59.908Z,7.40
2023-01-23T05:20:48.460Z,7.70
2023-01-23T05:23:37.140Z,8.40
2023-01-23T05:26:25.559Z,7.53
2023-01-23T05:29:15.970Z,7.50
2023-01-23T05:32:21.721Z,7.67
2023-01-23T05:35:28.517Z,8.30
2023-01-23T05:38:16.978Z,7.00
2023-01-23T05:41:05.757Z,7.37
2023-01-23T05:44:12.635Z,7.63
2023-01-23T05:47:15.352Z,6.60
2023-01-23T05:50:04.196Z,7.23
2023-01-23T05:52:56.879Z,7.73
2023-01-23T05:55:45.437Z,7.47
2023-01-23T05:58:35.776Z,7.93
2023-01-23T06:01:39.863Z,8.67
2023-01-23T06:04:48.450Z,6.87
2023-01-23T06:07:46.407Z,8.03
2023-01-23T06:10:37.736Z,7.00
2023-01-23T06:13:26.486Z,7.93
2023-01-23T06:16:15.017Z,8.80
2023-01-23T06:19:03.612Z,6.47
2023-01-23T06:21:55.188Z,8.63
2023-01-23T06:24:43.747Z,8.17
2023-01-23T06:27:33.807Z,7.40
2023-01-23T06:30:25.768Z,8.00
2023-01-23T06:33:14.337Z,6.73
2023-01-23T06:36:05.687Z,7.60
2023-01-23T06:38:54.634Z,7.23
2023-01-23T06:41:48.475Z,7.00
2023-01-23T06:44:44.833Z,7.43
2023-01-23T06:47:35.403Z,8.63
2023-01-23T06:50:24.500Z,9.57
2023-01-23T06:53:15.156Z,8.43
2023-01-23T06:56:07.410Z,6.57
2023-01-23T06:58:58.309Z,6.97
2023-01-23T07:01:52.861Z,7.70
2023-01-23T07:04:45.609Z,6.50
2023-01-23T07:07:34.555Z,8.07
2023-01-23T07:10:24.027Z,7.77
2023-01-23T07:13:13.033Z,8.63
2023-01-23T07:16:01.750Z,9.20
2023-01-23T07:18:51.660Z,7.83
2023-01-23T07:21:40.194Z,8.10
2023-01-23T07:24:29.970Z,7.53
2023-01-23T07:27:18.481Z,7.57
2023-01-23T07:30:08.526Z,7.43
2023-01-23T07:32:58.126Z,7.53
2023-01-23T07:35:47.917Z,8.60
2023-01-23T07:38:36.561Z,7.63
2023-01-23T07:41:24.995Z,7.47
2023-01-23T07:44:16.752Z,7.67
2023-01-23T07:47:05.294Z,8.97
2023-01-23T07:49:53.767Z,9.67
2023-01-23T07:52:43.603Z,9.27
2023-01-23T07:55:32.140Z,8.63
2023-01-23T07:58:20.625Z,7.67
2023-01-23T08:01:10.322Z,9.63
2023-01-23T08:03:58.871Z,9.00
2023-01-23T08:06:47.534Z,8.80
2023-01-23T08:09:37.362Z,9.10
2023-01-23T08:12:25.839Z,9.97
2023-01-23T08:15:14.297Z,9.10
2023-01-23T08:18:02.681Z,8.93
2023-01-23T08:20:55.308Z,9.90
2023-01-23T08:23:43.858Z,9.17
2023-01-23T08:26:34.662Z,10.00
2023-01-23T08:29:23.154Z,10.13
2023-01-23T08:32:11.590Z,8.93
2023-01-23T08:35:00.162Z,7.60
2023-01-23T08:37:48.585Z,9.27
2023-01-23T08:40:37.103Z,7.17
2023-01-23T08:43:27.062Z,9.93
2023-01-23T08:46:15.736Z,8.13
2023-01-23T08:49:05.051Z,9.10
2023-01-23T08:51:53.471Z,7.30
2023-01-23T08:54:41.904Z,7.93
2023-01-23T08:57:30.334Z,9.10
2023-01-23T09:00:22.333Z,6.93
2023-01-23T09:03:11.480Z,6.60
2023-01-23T09:06:02.762Z,6.73
2023-01-23T09:08:51.248Z,7.17
2023-01-23T09:11:39.799Z,7.17
2023-01-23T09:14:28.216Z,7.40
2023-01-23T09:17:18.087Z,6.80
2023-01-23T09:20:09.278Z,6.90
2023-01-23T09:22:57.737Z,6.53
2023-01-23T09:25:46.235Z,7.40
2023-01-23T09:28:35.995Z,6.10
2023-01-23T09:31:24.483Z,6.90
2023-01-23T09:34:16.963Z,6.30
2023-01-23T09:37:05.790Z,6.50
2023-01-23T09:39:54.180Z,7.03
2023-01-23T09:42:43.061Z,6.53
2023-01-23T09:45:31.549Z,7.10
2023-01-23T09:48:22.493Z,6.80
2023-01-23T09:51:18.068Z,5.60
2023-01-23T09:54:12.217Z,7.17
2023-01-23T09:57:02.326Z,5.73
2023-01-23T10:00:00.243Z,6.67
2023-01-23T10:02:49.560Z,6.90
2023-01-23T10:05:43.483Z,5.90
2023-01-23T10:08:37.673Z,5.97
2023-01-23T10:11:30.602Z,6.93
2023-01-23T10:14:42.396Z,6.17
2023-01-23T10:17:35.151Z,6.30
2023-01-23T10:20:44.780Z,5.87
2023-01-23T10:23:46.503Z,6.93
2023-01-23T10:26:38.209Z,5.17
2023-01-23T10:29:31.061Z,6.73
2023-01-23T10:32:25.859Z,7.00
2023-01-23T10:35:16.650Z,6.20
2023-01-23T10:38:14.834Z,6.50
2023-01-23T10:41:14.866Z,6.70
2023-01-23T10:44:03.348Z,6.60
2023-01-23T10:46:54.121Z,6.97
2023-01-23T10:49:45.783Z,5.67
2023-01-23T10:52:36.869Z,6.20
2023-01-23T10:55:30.711Z,6.70
2023-01-23T10:58:32.753Z,5.93
2023-01-23T11:01:27.402Z,6.90
2023-01-23T11:04:20.189Z,8.90
2023-01-23T11:07:13.845Z,6.60
2023-01-23T11:10:14.973Z,5.37
2023-01-23T11:13:03.632Z,6.33
2023-01-23T11:15:53.443Z,6.90
2023-01-23T11:18:43.486Z,7.00
2023-01-23T11:21:34.861Z,7.17
2023-01-23T11:24:39.768Z,7.60
2023-01-23T11:27:31.024Z,6.93
2023-01-23T11:30:37.480Z,7.63
2023-01-23T11:33:42.958Z,6.20
2023-01-23T11:36:42.449Z,7.00
2023-01-23T11:39:42.383Z,6.83
2023-01-23T11:42:30.933Z,6.20
2023-01-23T11:45:33.093Z,7.27
2023-01-23T11:48:34.023Z,8.93
2023-01-23T11:51:27.171Z,6.97
2023-01-23T11:54:44.534Z,6.00
2023-01-23T11:57:37.633Z,7.30
2023-01-23T12:00:30.995Z,7.80
2023-01-23T12:03:35.884Z,6.87
2023-01-23T12:06:55.492Z,7.67
2023-01-23T12:09:51.204Z,6.53
2023-01-23T12:12:54.412Z,7.23
2023-01-23T12:15:46.164Z,7.53
2023-01-23T12:18:40.494Z,6.40
2023-01-23T12:21:31.849Z,6.80
2023-01-23T12:24:34.134Z,7.70
2023-01-23T12:27:37.748Z,8.03
2023-01-23T12:30:56.438Z,6.67
2023-01-23T12:34:02.134Z,6.87
2023-01-23T12:37:30.374Z,7.00
2023-01-23T12:40:24.227Z,6.93
2023-01-23T12:43:15.463Z,8.47
2023-01-23T12:46:07.254Z,7.03
2023-01-23T12:48:59.323Z,7.10
2023-01-23T12:51:51.932Z,6.17
2023-01-23T12:54:44.368Z,6.90
2023-01-23T12:57:59.436Z,7.17
2023-01-23T13:01:24.819Z,6.30
2023-01-23T13:04:21.829Z,6.50
2023-01-23T13:07:18.923Z,6.57
2023-01-23T13:10:49.051Z,7.00
2023-01-23T13:13:38.807Z,6.00
2023-01-23T13:16:29.639Z,5.30
2023-01-23T13:19:42.443Z,6.37
2023-01-23T13:22:33.771Z,6.07
2023-01-23T13:25:22.217Z,6.07
2023-01-23T13:28:44.476Z,5.80
2023-01-23T13:31:41.856Z,6.80
2023-01-23T13:34:41.476Z,5.60
2023-01-23T13:37:51.071Z,5.53
2023-01-23T13:40:59.588Z,6.10
2023-01-23T13:43:53.414Z,6.37
2023-01-23T14:22:05.072Z,6.23
2023-01-23T14:24:54.997Z,5.43
2023-01-23T14:27:52.603Z,6.77
2023-01-23T14:30:41.517Z,6.33
2023-01-23T14:33:30.163Z,8.43
2023-01-23T14:36:20.323Z,6.23
2023-01-23T14:39:08.758Z,6.17
2023-01-23T14:42:02.390Z,6.27
2023-01-23T14:44:51.106Z,7.17
2023-01-23T14:47:42.527Z,6.90
2023-01-23T14:50:31.079Z,6.10
2023-01-23T14:53:20.856Z,7.00
2023-01-23T14:56:11.126Z,7.43
2023-01-23T14:59:01.577Z,6.23
2023-01-23T15:01:55.355Z,5.80
2023-01-23T15:04:43.742Z,7.17
2023-01-23T15:07:32.179Z,6.37
2023-01-23T15:10:23.662Z,6.37
2023-01-23T15:13:20.408Z,6.57
2023-01-23T15:16:15.220Z,7.17
2023-01-23T15:19:07.265Z,6.73
2023-01-23T15:22:17.467Z,6.97
2023-01-23T15:25:28.612Z,6.23
2023-01-23T15:28:32.581Z,7.30
2023-01-23T15:31:30.842Z,6.30
2023-01-23T15:34:23.911Z,7.53
2023-01-23T15:37:22.745Z,16.27
2023-01-23T15:40:17.929Z,18.63
2023-01-23T15:43:12.382Z,9.53
2023-01-23T15:46:01.637Z,7.27
2023-01-23T15:48:50.087Z,8.40
2023-01-23T15:51:38.595Z,5.90
2023-01-23T15:54:32.131Z,5.90
2023-01-23T15:57:20.645Z,5.67
2023-01-23T16:00:18.538Z,8.03
2023-01-23T16:03:07.006Z,6.70
2023-01-23T16:05:55.512Z,6.43
2023-01-23T16:08:44.070Z,5.80
2023-01-23T16:11:34.514Z,6.77
2023-01-23T16:14:22.947Z,8.23
2023-01-23T16:17:17.096Z,5.63
2023-01-23T16:20:07.119Z,12.77
2023-01-23T16:22:57.120Z,7.23
2023-01-23T16:25:46.503Z,6.57
2023-01-23T16:28:35.137Z,9.83
2023-01-23T16:31:23.692Z,7.80
2023-01-23T16:34:13.517Z,9.13
2023-01-23T16:37:01.895Z,5.93
2023-01-23T16:39:50.308Z,5.80
2023-01-23T16:42:38.867Z,5.73
2023-01-23T16:45:28.456Z,6.93
2023-01-23T16:48:26.234Z,5.43
2023-01-23T16:51:21.646Z,7.33
2023-01-23T16:54:18.725Z,7.30
2023-01-23T16:57:07.522Z,6.30
2023-01-23T16:59:56.425Z,5.70
2023-01-23T17:02:45.872Z,4.93
2023-01-23T17:05:34.277Z,5.77
2023-01-23T17:08:25.209Z,5.17
2023-01-23T17:11:19.485Z,4.70
2023-01-23T17:14:10.991Z,5.07
2023-01-23T17:17:02.584Z,5.33
2023-01-23T17:19:51.011Z,4.80
2023-01-23T17:22:40.975Z,5.57
2023-01-23T17:25:31.551Z,4.60
2023-01-23T17:28:21.119Z,4.27
2023-01-23T17:31:11.003Z,5.60
2023-01-23T17:33:59.491Z,6.07
2023-01-23T17:36:47.945Z,4.90
2023-01-23T17:39:36.737Z,4.93
2023-01-23T17:42:26.481Z,5.00
2023-01-23T17:45:15.313Z,5.67
2023-01-23T17:48:03.899Z,5.30
2023-01-23T17:50:52.307Z,7.03
2023-01-23T17:53:42.232Z,4.87
2023-01-23T17:56:30.721Z,4.80
2023-01-23T17:59:20.506Z,4.77
2023-01-23T18:02:21.489Z,4.87
2023-01-23T18:05:12.202Z,6.33
2023-01-23T18:08:00.787Z,5.03
2023-01-23T18:10:52.033Z,6.50
2023-01-23T18:13:47.017Z,4.80
2023-01-23T18:16:41.247Z,6.43
2023-01-23T18:19:30.377Z,5.47
2023-01-23T18:22:19.507Z,5.13
2023-01-23T18:25:14.687Z,5.93
2023-01-23T18:28:06.503Z,5.90
2023-01-23T18:34:15.371Z,6.87
2023-01-23T18:36:56.959Z,6.77
2023-01-23T18:39:46.267Z,7.30
2023-01-23T18:43:21.768Z,6.63
2023-01-23T18:45:50.809Z,12.60
2023-01-23T18:48:25.513Z,9.87
2023-01-23T18:51:13.198Z,12.47
2023-01-23T18:53:52.345Z,13.53
2023-01-23T18:56:25.987Z,11.70
2023-01-23T18:59:12.043Z,12.23
2023-01-23T19:01:50.162Z,10.80
2023-01-23T19:04:18.401Z,9.53
2023-01-23T19:06:47.091Z,10.47
2023-01-23T19:09:19.701Z,8.33
2023-01-23T19:11:59.341Z,10.27
2023-01-23T19:14:46.511Z,7.97
2023-01-23T19:17:19.087Z,9.27
2023-01-23T19:19:50.001Z,8.03
2023-01-23T19:22:18.355Z,6.63
2023-01-23T19:24:47.196Z,7.50
2023-01-23T19:27:18.816Z,7.00
2023-01-23T19:29:48.820Z,6.90
2023-01-23T19:32:17.804Z,5.97
2023-01-23T19:34:46.117Z,6.57
2023-01-23T19:37:15.176Z,6.17
2023-01-23T19:39:43.322Z,5.97
2023-01-23T19:42:14.533Z,7.03
2023-01-23T19:44:42.654Z,5.87
2023-01-23T19:47:12.194Z,6.73
2023-01-23T19:49:40.343Z,6.43
2023-01-23T19:52:10.775Z,6.33
2023-01-23T19:54:39.091Z,7.47
2023-01-23T19:57:07.321Z,7.67
2023-01-23T19:59:35.509Z,7.40
2023-01-23T20:02:04.098Z,6.83
2023-01-23T20:04:34.212Z,7.17
2023-01-23T20:07:02.391Z,8.03
2023-01-23T20:09:30.526Z,7.57
2023-01-23T20:11:58.786Z,7.60
2023-01-23T20:14:27.348Z,8.33
2023-01-23T20:16:55.579Z,7.50
2023-01-23T20:19:23.927Z,6.10
2023-01-23T20:21:53.372Z,7.80
2023-01-23T20:24:21.602Z,6.77
2023-01-23T20:26:49.726Z,8.20
2023-01-23T20:29:17.892Z,14.63
2023-01-23T20:31:46.530Z,8.00
2023-01-23T20:34:14.707Z,6.20
2023-01-23T20:36:42.920Z,7.27
2023-01-23T20:39:13.370Z,5.70
2023-01-23T20:41:41.770Z,6.83
2023-01-23T20:44:10.017Z,7.40
2023-01-23T20:46:38.128Z,7.13
2023-01-23T20:49:06.318Z,6.37
2023-01-23T20:51:34.503Z,6.77
2023-01-23T20:54:01.926Z,6.10
2023-01-23T20:56:31.478Z,6.20
2023-01-23T20:59:17.252Z,6.97
2023-01-23T21:02:03.534Z,6.83
2023-01-23T21:04:33.483Z,7.17
2023-01-23T21:07:01.764Z,7.27
2023-01-23T21:09:30.063Z,7.40
2023-01-23T21:12:00.621Z,7.70
2023-01-23T21:14:28.976Z,7.13
2023-01-23T21:16:58.235Z,8.97
2023-01-23T21:19:28.679Z,9.37
2023-01-23T21:21:56.791Z,7.20
2023-01-23T21:24:25.014Z,6.37
2023-01-23T21:26:53.428Z,5.87
2023-01-23T21:29:23.054Z,7.13
2023-01-23T21:31:51.536Z,7.50
2023-01-23T21:34:19.858Z,6.63
2023-01-23T21:36:48.011Z,7.80
2023-01-23T21:39:16.439Z,6.77
2023-01-23T21:41:44.592Z,5.97
2023-01-23T21:44:12.991Z,7.17
2023-01-23T21:46:42.591Z,7.40
2023-01-23T21:49:10.997Z,7.17
2023-01-23T21:51:39.189Z,7.17
2023-01-23T21:54:07.299Z,7.83
2023-01-23T21:56:35.380Z,7.63
2023-01-23T21:59:03.520Z,7.37
2023-01-23T22:01:35.855Z,6.67
2023-01-23T22:04:06.996Z,7.10
2023-01-23T22:06:35.497Z,8.43
2023-01-23T22:09:03.969Z,6.77
2023-01-23T22:11:32.174Z,9.17
2023-01-23T22:14:00.305Z,7.13
2023-01-23T22:16:46.872Z,8.10
2023-01-23T22:19:18.676Z,8.40
2023-01-23T22:21:47.081Z,7.97
2023-01-23T22:24:15.529Z,8.83
2023-01-23T22:26:43.798Z,8.57
2023-01-23T22:29:13.132Z,7.80
2023-01-23T22:31:41.396Z,8.40
2023-01-23T22:34:09.723Z,8.63
2023-01-23T22:36:39.227Z,8.33
2023-01-23T22:39:07.400Z,8.70
2023-01-23T22:41:35.595Z,8.60
2023-01-23T22:44:03.825Z,8.07
2023-01-23T22:46:32.509Z,8.00
2023-01-23T22:49:00.692Z,8.77
2023-01-23T22:51:29.279Z,10.27
2023-01-23T22:53:59.374Z,9.27
2023-01-23T22:56:28.953Z,6.83
2023-01-23T22:58:57.450Z,9.03
2023-01-23T23:01:26.899Z,7.90
2023-01-23T23:03:55.163Z,8.77
2023-01-23T23:06:23.373Z,7.43
2023-01-23T23:08:51.448Z,8.43
2023-01-23T23:11:22.265Z,9.27
2023-01-23T23:13:50.658Z,7.20
2023-01-23T23:16:20.713Z,10.43
2023-01-23T23:18:50.396Z,7.50
2023-01-23T23:21:20.428Z,7.33
2023-01-23T23:23:48.673Z,7.77
2023-01-23T23:26:17.230Z,7.87
2023-01-23T23:28:46.615Z,8.77
2023-01-23T23:31:14.812Z,7.17
2023-01-23T23:33:43.036Z,10.83
2023-01-23T23:36:11.312Z,8.70
2023-01-23T23:38:39.439Z,9.00
2023-01-23T23:41:10.067Z,7.57
2023-01-23T23:43:38.206Z,8.80
2023-01-23T23:46:08.720Z,7.97
2023-01-23T23:48:37.512Z,7.70
2023-01-23T23:51:06.998Z,9.60
2023-01-23T23:53:35.559Z,10.63
2023-01-23T23:56:03.865Z,7.87
2023-01-23T23:58:32.230Z,9.33
